sensor_id;sensor_type;location;lat;lon;timestamp;pressure;altitude;pressure_sealevel;temperature;humidity
33153;BME280;19509;43.862;26.176;2023-06-05T00:00:53;101252.03;;;12.64;77.95
33153;BME280;19509;43.862;26.176;2023-06-05T00:03:18;101248.28;;;12.78;77.35
33153;BME280;19509;43.862;26.176;2023-06-05T00:05:44;101189.91;;;12.30;77.71
33153;BME280;19509;43.862;26.176;2023-06-05T00:08:09;101255.97;;;12.74;77.69
33153;BME280;19509;43.862;26.176;2023-06-05T00:10:35;101250.97;;;12.71;77.94
33153;BME280;19509;43.862;26.176;2023-06-05T00:13:00;101248.47;;;12.76;78.12
33153;BME280;19509;43.862;26.176;2023-06-05T00:15:26;101249.94;;;12.72;78.74
33153;BME280;19509;43.862;26.176;2023-06-05T00:17:52;101245.97;;;12.75;78.43
33153;BME280;19509;43.862;26.176;2023-06-05T00:20:17;101244.94;;;12.83;78.31
33153;BME280;19509;43.862;26.176;2023-06-05T00:22:43;101245.97;;;12.88;78.56
33153;BME280;19509;43.862;26.176;2023-06-05T00:25:12;101239.94;;;12.79;79.73
33153;BME280;19509;43.862;26.176;2023-06-05T00:27:38;101257.59;;;12.89;80.21
33153;BME280;19509;43.862;26.176;2023-06-05T00:30:07;101268.19;;;12.90;80.26
33153;BME280;19509;43.862;26.176;2023-06-05T00:32:34;101259.66;;;12.93;79.89
33153;BME280;19509;43.862;26.176;2023-06-05T00:34:59;101262.59;;;13.05;80.06
33153;BME280;19509;43.862;26.176;2023-06-05T00:37:25;101259.66;;;13.07;80.08
33153;BME280;19509;43.862;26.176;2023-06-05T00:39:52;101267.75;;;13.07;80.63
33153;BME280;19509;43.862;26.176;2023-06-05T00:42:17;101258.41;;;13.09;80.65
33153;BME280;19509;43.862;26.176;2023-06-05T00:44:43;101253.84;;;13.03;81.19
33153;BME280;19509;43.862;26.176;2023-06-05T00:47:09;101264.66;;;13.10;81.81
33153;BME280;19509;43.862;26.176;2023-06-05T00:49:35;101272.56;;;12.98;81.31
33153;BME280;19509;43.862;26.176;2023-06-05T00:52:01;101265.28;;;13.05;81.78
33153;BME280;19509;43.862;26.176;2023-06-05T00:54:27;101182.44;;;12.52;81.59
33153;BME280;19509;43.862;26.176;2023-06-05T00:56:53;101264.47;;;12.98;82.31
33153;BME280;19509;43.862;26.176;2023-06-05T00:59:20;101261.53;;;12.99;82.52
33153;BME280;19509;43.862;26.176;2023-06-05T01:01:45;101263.59;;;12.97;83.13
33153;BME280;19509;43.862;26.176;2023-06-05T01:04:13;101268.41;;;13.02;83.08
33153;BME280;19509;43.862;26.176;2023-06-05T01:06:39;101268.59;;;12.94;82.26
33153;BME280;19509;43.862;26.176;2023-06-05T01:09:06;101266.75;;;12.88;83.10
33153;BME280;19509;43.862;26.176;2023-06-05T01:14:14;101264.88;;;12.95;83.80
33153;BME280;19509;43.862;26.176;2023-06-05T01:16:42;101269.00;;;13.04;83.13
33153;BME280;19509;43.862;26.176;2023-06-05T01:19:13;101256.13;;;13.06;83.26
33153;BME280;19509;43.862;26.176;2023-06-05T01:21:40;101265.28;;;13.05;83.40
33153;BME280;19509;43.862;26.176;2023-06-05T01:24:06;101283.78;;;12.95;83.91
33153;BME280;19509;43.862;26.176;2023-06-05T01:27:02;101276.72;;;12.94;84.15
33153;BME280;19509;43.862;26.176;2023-06-05T01:29:56;101264.47;;;12.98;84.24
33153;BME280;19509;43.862;26.176;2023-06-05T01:32:32;101272.16;;;12.94;84.25
33153;BME280;19509;43.862;26.176;2023-06-05T01:35:06;101270.88;;;12.90;85.29
33153;BME280;19509;43.862;26.176;2023-06-05T01:37:35;101276.28;;;13.03;85.59
33153;BME280;19509;43.862;26.176;2023-06-05T01:40:08;101277.97;;;13.05;86.08
33153;BME280;19509;43.862;26.176;2023-06-05T01:42:36;101270.88;;;13.10;86.00
33153;BME280;19509;43.862;26.176;2023-06-05T01:45:02;101274.22;;;13.12;84.68
33153;BME280;19509;43.862;26.176;2023-06-05T01:47:29;101277.75;;;13.06;84.81
33153;BME280;19509;43.862;26.176;2023-06-05T01:49:55;101279.22;;;13.02;84.14
33153;BME280;19509;43.862;26.176;2023-06-05T01:52:20;101275.88;;;12.93;84.71
33153;BME280;19509;43.862;26.176;2023-06-05T01:54:46;101277.56;;;12.88;85.12
33153;BME280;19509;43.862;26.176;2023-06-05T01:57:14;101276.72;;;12.94;85.07
33153;BME280;19509;43.862;26.176;2023-06-05T01:59:40;101271.13;;;12.89;85.99
33153;BME280;19509;43.862;26.176;2023-06-05T02:02:05;101275.69;;;12.95;85.80
33153;BME280;19509;43.862;26.176;2023-06-05T02:04:31;101280.03;;;12.96;85.73
33153;BME280;19509;43.862;26.176;2023-06-05T02:06:57;101289.59;;;12.92;85.62
33153;BME280;19509;43.862;26.176;2023-06-05T02:09:29;101286.69;;;12.87;86.19
33153;BME280;19509;43.862;26.176;2023-06-05T02:11:57;101274.63;;;12.89;86.19
33153;BME280;19509;43.862;26.176;2023-06-05T02:14:29;101279.00;;;12.97;86.80
33153;BME280;19509;43.862;26.176;2023-06-05T02:16:54;101278.81;;;12.98;87.03
33153;BME280;19509;43.862;26.176;2023-06-05T02:19:22;101284.63;;;12.95;86.34
33153;BME280;19509;43.862;26.176;2023-06-05T02:21:47;101284.81;;;12.94;85.68
33153;BME280;19509;43.862;26.176;2023-06-05T02:24:12;101285.84;;;12.86;86.10
33153;BME280;19509;43.862;26.176;2023-06-05T02:26:38;101294.78;;;12.80;85.93
33153;BME280;19509;43.862;26.176;2023-06-05T02:29:04;101291.91;;;12.82;85.77
33153;BME280;19509;43.862;26.176;2023-06-05T02:31:30;101284.84;;;12.74;86.52
33153;BME280;19509;43.862;26.176;2023-06-05T02:33:56;101285.44;;;12.76;86.35
33153;BME280;19509;43.862;26.176;2023-06-05T02:36:23;101289.19;;;12.75;86.38
33153;BME280;19509;43.862;26.176;2023-06-05T02:38:50;101292.31;;;12.72;85.64
33153;BME280;19509;43.862;26.176;2023-06-05T02:41:16;101289.59;;;12.78;85.32
33153;BME280;19509;43.862;26.176;2023-06-05T02:43:42;101297.91;;;12.84;85.58
33153;BME280;19509;43.862;26.176;2023-06-05T02:46:08;101290.84;;;12.76;85.50
33153;BME280;19509;43.862;26.176;2023-06-05T02:48:34;101293.13;;;12.72;85.64
33153;BME280;19509;43.862;26.176;2023-06-05T02:51:00;101292.09;;;12.73;85.28
33153;BME280;19509;43.862;26.176;2023-06-05T02:53:25;101290.25;;;12.67;85.22
33153;BME280;19509;43.862;26.176;2023-06-05T02:55:51;101292.53;;;12.64;85.56
33153;BME280;19509;43.862;26.176;2023-06-05T02:58:18;101295.19;;;12.77;86.07
33153;BME280;19509;43.862;26.176;2023-06-05T03:00:44;101296.06;;;12.84;85.83
33153;BME280;19509;43.862;26.176;2023-06-05T03:03:11;101290.03;;;12.95;86.02
33153;BME280;19509;43.862;26.176;2023-06-05T03:05:38;101289.19;;;13.01;85.91
33153;BME280;19509;43.862;26.176;2023-06-05T03:08:03;101293.75;;;13.08;85.80
33153;BME280;19509;43.862;26.176;2023-06-05T03:10:29;101288.53;;;13.13;86.19
33153;BME280;19509;43.862;26.176;2023-06-05T03:12:55;101289.78;;;13.17;85.49
33153;BME280;19509;43.862;26.176;2023-06-05T03:15:20;101290.63;;;13.24;86.46
33153;BME280;19509;43.862;26.176;2023-06-05T03:17:46;101295.00;;;13.18;87.17
33153;BME280;19509;43.862;26.176;2023-06-05T03:20:12;101295.59;;;13.20;86.88
33153;BME280;19509;43.862;26.176;2023-06-05T03:22:38;101289.59;;;13.32;86.84
33153;BME280;19509;43.862;26.176;2023-06-05T03:25:05;101295.84;;;13.32;86.91
33153;BME280;19509;43.862;26.176;2023-06-05T03:27:31;101300.56;;;13.43;85.88
33153;BME280;19509;43.862;26.176;2023-06-05T03:29:56;101298.09;;;13.42;85.70
33153;BME280;19509;43.862;26.176;2023-06-05T03:32:24;101294.94;;;13.45;85.23
33153;BME280;19509;43.862;26.176;2023-06-05T03:34:50;101299.75;;;13.43;85.63
33153;BME280;19509;43.862;26.176;2023-06-05T03:37:15;101297.47;;;13.46;85.54
33153;BME280;19509;43.862;26.176;2023-06-05T03:39:41;101250.69;;;13.19;85.55
33153;BME280;19509;43.862;26.176;2023-06-05T03:42:07;101303.28;;;13.50;85.93
33153;BME280;19509;43.862;26.176;2023-06-05T03:44:34;101302.00;;;13.59;86.21
33153;BME280;19509;43.862;26.176;2023-06-05T03:47:00;101298.84;;;13.69;85.57
33153;BME280;19509;43.862;26.176;2023-06-05T03:49:26;101319.22;;;13.65;85.76
33153;BME280;19509;43.862;26.176;2023-06-05T03:51:54;101295.25;;;13.82;86.50
33153;BME280;19509;43.862;26.176;2023-06-05T03:54:26;101297.28;;;14.00;85.74
33153;BME280;19509;43.862;26.176;2023-06-05T03:56:54;101302.75;;;14.25;85.30
33153;BME280;19509;43.862;26.176;2023-06-05T03:59:21;101291.38;;;14.48;84.29
33153;BME280;19509;43.862;26.176;2023-06-05T04:01:48;101290.59;;;14.72;83.55
33153;BME280;19509;43.862;26.176;2023-06-05T04:04:14;101295.50;;;15.07;82.94
33153;BME280;19509;43.862;26.176;2023-06-05T04:06:39;101290.06;;;15.32;81.60
33153;BME280;19509;43.862;26.176;2023-06-05T04:09:09;101293.88;;;15.24;82.14
33153;BME280;19509;43.862;26.176;2023-06-05T04:11:41;101286.72;;;15.11;82.47
33153;BME280;19509;43.862;26.176;2023-06-05T04:14:08;101285.72;;;15.24;82.94
33153;BME280;19509;43.862;26.176;2023-06-05T04:16:35;101284.69;;;15.44;82.45
33153;BME280;19509;43.862;26.176;2023-06-05T04:19:07;101284.22;;;15.65;82.01
33153;BME280;19509;43.862;26.176;2023-06-05T04:21:35;101281.03;;;15.75;81.47
33153;BME280;19509;43.862;26.176;2023-06-05T04:24:02;101288.63;;;15.84;81.56
33153;BME280;19509;43.862;26.176;2023-06-05T04:26:32;101291.50;;;15.90;81.87
33153;BME280;19509;43.862;26.176;2023-06-05T04:28:59;101295.59;;;16.11;81.51
33153;BME280;19509;43.862;26.176;2023-06-05T04:31:24;101295.63;;;16.22;81.27
33153;BME280;19509;43.862;26.176;2023-06-05T04:33:50;101299.25;;;16.35;81.01
33153;BME280;19509;43.862;26.176;2023-06-05T04:36:16;101304.69;;;16.46;80.89
33153;BME280;19509;43.862;26.176;2023-06-05T04:38:43;101303.06;;;16.57;80.77
33153;BME280;19509;43.862;26.176;2023-06-05T04:41:10;101301.81;;;16.71;80.69
33153;BME280;19509;43.862;26.176;2023-06-05T04:43:36;101305.50;;;16.77;80.60
33153;BME280;19509;43.862;26.176;2023-06-05T04:46:02;101300.78;;;16.84;80.39
33153;BME280;19509;43.862;26.176;2023-06-05T04:48:28;101308.97;;;16.96;80.16
33153;BME280;19509;43.862;26.176;2023-06-05T04:50:54;101313.47;;;17.02;79.74
33153;BME280;19509;43.862;26.176;2023-06-05T04:53:21;101308.09;;;16.72;81.20
33153;BME280;19509;43.862;26.176;2023-06-05T04:55:47;101313.44;;;16.78;82.10
33153;BME280;19509;43.862;26.176;2023-06-05T04:58:14;101314.16;;;16.86;80.89
33153;BME280;19509;43.862;26.176;2023-06-05T05:00:42;101321.34;;;16.80;81.68
33153;BME280;19509;43.862;26.176;2023-06-05T05:03:09;101327.78;;;17.09;80.67
33153;BME280;19509;43.862;26.176;2023-06-05T05:05:39;101319.97;;;17.01;80.99
33153;BME280;19509;43.862;26.176;2023-06-05T05:08:04;101326.47;;;17.00;81.72
33153;BME280;19509;43.862;26.176;2023-06-05T05:10:30;101327.56;;;17.22;81.04
33153;BME280;19509;43.862;26.176;2023-06-05T05:12:56;101323.88;;;17.40;80.04
33153;BME280;19509;43.862;26.176;2023-06-05T05:15:21;101322.19;;;17.51;79.42
33153;BME280;19509;43.862;26.176;2023-06-05T05:17:48;101325.28;;;17.66;78.91
33153;BME280;19509;43.862;26.176;2023-06-05T05:20:14;101320.66;;;17.67;79.43
33153;BME280;19509;43.862;26.176;2023-06-05T05:22:40;101311.78;;;17.83;78.47
33153;BME280;19509;43.862;26.176;2023-06-05T05:25:06;101316.72;;;17.74;78.18
33153;BME280;19509;43.862;26.176;2023-06-05T05:27:31;101313.38;;;17.96;79.03
33153;BME280;19509;43.862;26.176;2023-06-05T05:29:57;101326.06;;;17.90;79.90
33153;BME280;19509;43.862;26.176;2023-06-05T05:32:22;101308.03;;;18.01;79.53
33153;BME280;19509;43.862;26.176;2023-06-05T05:34:48;101309.47;;;17.92;80.00
33153;BME280;19509;43.862;26.176;2023-06-05T05:37:16;101304.56;;;17.77;80.69
33153;BME280;19509;43.862;26.176;2023-06-05T05:39:41;101309.81;;;17.95;79.85
33153;BME280;19509;43.862;26.176;2023-06-05T05:42:07;101312.56;;;18.24;78.84
33153;BME280;19509;43.862;26.176;2023-06-05T05:44:32;101301.72;;;18.41;78.90
33153;BME280;19509;43.862;26.176;2023-06-05T05:46:58;101312.81;;;18.51;77.56
33153;BME280;19509;43.862;26.176;2023-06-05T05:49:23;101307.72;;;18.72;75.90
33153;BME280;19509;43.862;26.176;2023-06-05T05:51:50;101312.38;;;18.59;76.25
33153;BME280;19509;43.862;26.176;2023-06-05T05:54:15;101315.66;;;18.73;75.84
33153;BME280;19509;43.862;26.176;2023-06-05T05:56:41;101299.34;;;18.61;75.73
33153;BME280;19509;43.862;26.176;2023-06-05T05:59:07;101323.84;;;18.90;75.38
33153;BME280;19509;43.862;26.176;2023-06-05T06:01:33;101325.41;;;19.03;73.94
33153;BME280;19509;43.862;26.176;2023-06-05T06:03:59;101320.28;;;18.89;75.19
33153;BME280;19509;43.862;26.176;2023-06-05T06:06:24;101330.44;;;18.77;75.98
33153;BME280;19509;43.862;26.176;2023-06-05T06:08:51;101319.38;;;19.01;77.45
33153;BME280;19509;43.862;26.176;2023-06-05T06:11:16;101316.56;;;19.29;76.48
33153;BME280;19509;43.862;26.176;2023-06-05T06:13:43;101322.59;;;19.14;77.09
33153;BME280;19509;43.862;26.176;2023-06-05T06:16:09;101316.41;;;18.85;76.11
33153;BME280;19509;43.862;26.176;2023-06-05T06:18:35;101322.44;;;19.04;76.54
33153;BME280;19509;43.862;26.176;2023-06-05T06:21:00;101320.28;;;19.06;77.72
33153;BME280;19509;43.862;26.176;2023-06-05T06:23:26;101332.66;;;19.31;76.88
33153;BME280;19509;43.862;26.176;2023-06-05T06:25:51;101323.81;;;19.24;75.84
33153;BME280;19509;43.862;26.176;2023-06-05T06:28:17;101331.19;;;19.23;74.37
33153;BME280;19509;43.862;26.176;2023-06-05T06:30:44;101326.91;;;19.10;76.21
33153;BME280;19509;43.862;26.176;2023-06-05T06:33:10;101326.91;;;18.94;75.86
33153;BME280;19509;43.862;26.176;2023-06-05T06:35:35;101325.75;;;19.06;76.73
33153;BME280;19509;43.862;26.176;2023-06-05T06:38:01;101321.25;;;19.34;78.29
33153;BME280;19509;43.862;26.176;2023-06-05T06:40:27;101313.97;;;19.61;76.68
33153;BME280;19509;43.862;26.176;2023-06-05T06:42:54;101317.88;;;19.27;75.17
33153;BME280;19509;43.862;26.176;2023-06-05T06:45:19;101344.13;;;19.50;75.49
33153;BME280;19509;43.862;26.176;2023-06-05T06:47:46;101315.31;;;19.59;75.34
33153;BME280;19509;43.862;26.176;2023-06-05T06:50:12;101321.66;;;19.81;74.95
33153;BME280;19509;43.862;26.176;2023-06-05T06:52:38;101322.84;;;19.69;72.68
33153;BME280;19509;43.862;26.176;2023-06-05T06:55:05;101323.88;;;19.84;69.55
33153;BME280;19509;43.862;26.176;2023-06-05T06:57:31;101324.34;;;20.03;72.84
33153;BME280;19509;43.862;26.176;2023-06-05T06:59:57;101321.63;;;20.03;71.37
33153;BME280;19509;43.862;26.176;2023-06-05T07:02:24;101315.97;;;20.10;72.69
33153;BME280;19509;43.862;26.176;2023-06-05T07:04:50;101321.19;;;20.12;70.37
33153;BME280;19509;43.862;26.176;2023-06-05T07:07:19;101317.59;;;20.33;70.58
33153;BME280;19509;43.862;26.176;2023-06-05T07:09:48;101328.31;;;20.40;68.33
33153;BME280;19509;43.862;26.176;2023-06-05T07:12:15;101327.69;;;20.32;67.42
33153;BME280;19509;43.862;26.176;2023-06-05T07:14:41;101343.63;;;20.63;65.29
33153;BME280;19509;43.862;26.176;2023-06-05T07:17:07;101332.81;;;20.51;64.96
33153;BME280;19509;43.862;26.176;2023-06-05T07:19:33;101335.09;;;20.59;64.60
33153;BME280;19509;43.862;26.176;2023-06-05T07:22:02;101343.63;;;20.63;61.14
33153;BME280;19509;43.862;26.176;2023-06-05T07:24:30;101337.69;;;21.03;62.92
33153;BME280;19509;43.862;26.176;2023-06-05T07:26:58;101330.09;;;21.15;59.15
33153;BME280;19509;43.862;26.176;2023-06-05T07:29:24;101342.53;;;21.33;59.50
33153;BME280;19509;43.862;26.176;2023-06-05T07:31:51;101336.03;;;21.39;61.17
33153;BME280;19509;43.862;26.176;2023-06-05T07:34:20;101333.75;;;21.31;55.92
33153;BME280;19509;43.862;26.176;2023-06-05T07:36:46;101336.59;;;21.09;57.42
33153;BME280;19509;43.862;26.176;2023-06-05T07:39:16;101336.16;;;21.22;53.29
33153;BME280;19509;43.862;26.176;2023-06-05T07:41:42;101327.88;;;21.12;52.56
33153;BME280;19509;43.862;26.176;2023-06-05T07:44:12;101334.91;;;21.35;54.45
33153;BME280;19509;43.862;26.176;2023-06-05T07:46:45;101340.75;;;21.49;45.75
33153;BME280;19509;43.862;26.176;2023-06-05T07:49:11;101333.16;;;21.61;46.08
33153;BME280;19509;43.862;26.176;2023-06-05T07:51:37;101338.78;;;21.97;46.10
33153;BME280;19509;43.862;26.176;2023-06-05T07:54:05;101348.25;;;21.69;40.46
33153;BME280;19509;43.862;26.176;2023-06-05T07:56:30;101346.28;;;21.59;37.01
33153;BME280;19509;43.862;26.176;2023-06-05T07:58:57;101342.91;;;21.94;42.67
33153;BME280;19509;43.862;26.176;2023-06-05T08:01:22;101349.84;;;22.17;40.01
33153;BME280;19509;43.862;26.176;2023-06-05T08:03:49;101380.34;;;22.36;42.58
33153;BME280;19509;43.862;26.176;2023-06-05T08:06:14;101356.25;;;22.49;39.42
33153;BME280;19509;43.862;26.176;2023-06-05T08:08:41;101350.47;;;22.55;40.88
33153;BME280;19509;43.862;26.176;2023-06-05T08:11:08;101348.81;;;22.39;40.89
33153;BME280;19509;43.862;26.176;2023-06-05T08:13:34;101351.91;;;22.83;41.83
33153;BME280;19509;43.862;26.176;2023-06-05T08:15:59;101346.44;;;23.14;39.34
33153;BME280;19509;43.862;26.176;2023-06-05T08:18:25;101346.66;;;22.72;38.34
33153;BME280;19509;43.862;26.176;2023-06-05T08:20:50;101332.44;;;23.00;38.01
33153;BME280;19509;43.862;26.176;2023-06-05T08:23:16;101332.44;;;22.95;39.85
33153;BME280;19509;43.862;26.176;2023-06-05T08:25:42;101324.97;;;22.75;36.30
33153;BME280;19509;43.862;26.176;2023-06-05T08:28:08;101324.16;;;22.54;40.93
33153;BME280;19509;43.862;26.176;2023-06-05T08:30:34;101328.25;;;22.36;36.15
33153;BME280;19509;43.862;26.176;2023-06-05T08:32:59;101324.16;;;22.64;36.32
33153;BME280;19509;43.862;26.176;2023-06-05T08:35:25;101322.81;;;22.77;37.58
33153;BME280;19509;43.862;26.176;2023-06-05T08:37:51;101311.56;;;23.04;37.25
33153;BME280;19509;43.862;26.176;2023-06-05T08:40:18;101309.06;;;22.87;36.95
33153;BME280;19509;43.862;26.176;2023-06-05T08:42:44;101305.53;;;22.77;36.32
33153;BME280;19509;43.862;26.176;2023-06-05T08:45:11;101298.09;;;22.77;36.70
33153;BME280;19509;43.862;26.176;2023-06-05T08:47:37;101293.44;;;23.08;36.73
33153;BME280;19509;43.862;26.176;2023-06-05T08:50:05;101295.28;;;23.38;36.34
33153;BME280;19509;43.862;26.176;2023-06-05T08:52:38;101290.69;;;23.19;37.53
33153;BME280;19509;43.862;26.176;2023-06-05T08:55:04;101289.44;;;23.66;36.83
33153;BME280;19509;43.862;26.176;2023-06-05T08:57:32;101301.19;;;23.87;32.12
33153;BME280;19509;43.862;26.176;2023-06-05T08:59:59;101288.56;;;23.80;34.22
33153;BME280;19509;43.862;26.176;2023-06-05T09:02:25;101289.31;;;23.96;36.03
33153;BME280;19509;43.862;26.176;2023-06-05T09:04:51;101296.75;;;23.96;31.27
33153;BME280;19509;43.862;26.176;2023-06-05T09:07:17;101300.72;;;23.74;33.53
33153;BME280;19509;43.862;26.176;2023-06-05T09:09:43;101290.25;;;23.76;29.25
33153;BME280;19509;43.862;26.176;2023-06-05T09:12:09;101287.75;;;23.80;33.26
33153;BME280;19509;43.862;26.176;2023-06-05T09:14:35;101294.50;;;24.03;31.08
33153;BME280;19509;43.862;26.176;2023-06-05T09:17:02;101297.75;;;24.15;32.94
33153;BME280;19509;43.862;26.176;2023-06-05T09:19:46;101300.44;;;24.25;28.21
33153;BME280;19509;43.862;26.176;2023-06-05T09:22:12;101290.97;;;23.97;30.65
33153;BME280;19509;43.862;26.176;2023-06-05T09:24:40;101288.41;;;24.16;35.96
33153;BME280;19509;43.862;26.176;2023-06-05T09:27:16;101286.03;;;24.44;33.64
33153;BME280;19509;43.862;26.176;2023-06-05T09:29:42;101283.84;;;24.75;32.47
33153;BME280;19509;43.862;26.176;2023-06-05T09:32:17;101296.34;;;24.62;31.95
33153;BME280;19509;43.862;26.176;2023-06-05T09:34:55;101298.59;;;24.89;28.19
33153;BME280;19509;43.862;26.176;2023-06-05T09:37:36;101298.69;;;25.08;31.06
33153;BME280;19509;43.862;26.176;2023-06-05T09:40:03;101293.34;;;25.22;29.42
33153;BME280;19509;43.862;26.176;2023-06-05T09:42:34;101292.88;;;25.15;29.13
33153;BME280;19509;43.862;26.176;2023-06-05T09:45:01;101300.06;;;25.11;30.69
33153;BME280;19509;43.862;26.176;2023-06-05T09:47:27;101287.22;;;24.96;29.89
33153;BME280;19509;43.862;26.176;2023-06-05T09:49:52;101289.00;;;24.87;32.19
33153;BME280;19509;43.862;26.176;2023-06-05T09:52:18;101269.31;;;24.98;31.60
33153;BME280;19509;43.862;26.176;2023-06-05T09:54:45;101281.75;;;25.25;26.20
33153;BME280;19509;43.862;26.176;2023-06-05T09:57:12;101271.25;;;25.27;27.79
33153;BME280;19509;43.862;26.176;2023-06-05T09:59:50;101276.03;;;25.64;27.25
33153;BME280;19509;43.862;26.176;2023-06-05T10:02:33;101270.84;;;25.39;32.05
33153;BME280;19509;43.862;26.176;2023-06-05T10:05:03;101268.16;;;25.58;28.55
33153;BME280;19509;43.862;26.176;2023-06-05T10:07:32;101258.75;;;25.11;28.66
33153;BME280;19509;43.862;26.176;2023-06-05T10:09:58;101258.50;;;24.78;29.64
33153;BME280;19509;43.862;26.176;2023-06-05T10:12:24;101257.94;;;24.81;30.40
33153;BME280;19509;43.862;26.176;2023-06-05T10:14:53;101256.94;;;24.96;33.24
33153;BME280;19509;43.862;26.176;2023-06-05T10:17:21;101255.63;;;24.59;28.72
33153;BME280;19509;43.862;26.176;2023-06-05T10:19:48;101268.91;;;25.15;33.47
33153;BME280;19509;43.862;26.176;2023-06-05T10:22:17;101270.97;;;25.53;27.43
33153;BME280;19509;43.862;26.176;2023-06-05T10:24:51;101266.34;;;25.91;27.65
33153;BME280;19509;43.862;26.176;2023-06-05T10:27:54;101263.63;;;26.10;27.29
33153;BME280;19509;43.862;26.176;2023-06-05T10:38:33;101254.59;;;26.04;29.97
33153;BME280;19509;43.862;26.176;2023-06-05T10:41:00;101250.19;;;25.84;31.15
33153;BME280;19509;43.862;26.176;2023-06-05T10:45:52;101233.06;;;26.06;30.29
33153;BME280;19509;43.862;26.176;2023-06-05T10:48:18;101235.59;;;26.03;30.22
33153;BME280;19509;43.862;26.176;2023-06-05T10:50:44;101232.53;;;25.85;32.07
33153;BME280;19509;43.862;26.176;2023-06-05T10:53:48;101218.81;;;25.99;31.15
33153;BME280;19509;43.862;26.176;2023-06-05T10:57:15;101221.59;;;26.32;29.00
33153;BME280;19509;43.862;26.176;2023-06-05T10:59:24;101235.41;;;26.51;30.25
33153;BME280;19509;43.862;26.176;2023-06-05T11:07:28;101233.94;;;26.21;31.80
33153;BME280;19509;43.862;26.176;2023-06-05T11:10:17;101222.91;;;25.83;30.12
33153;BME280;19509;43.862;26.176;2023-06-05T11:15:15;101212.50;;;25.75;31.10
33153;BME280;19509;43.862;26.176;2023-06-05T11:17:43;101215.66;;;26.25;32.10
33153;BME280;19509;43.862;26.176;2023-06-05T11:27:48;101196.56;;;26.47;31.63
33153;BME280;19509;43.862;26.176;2023-06-05T11:30:19;101196.94;;;26.87;32.26
33153;BME280;19509;43.862;26.176;2023-06-05T11:32:46;101208.28;;;26.85;29.77
33153;BME280;19509;43.862;26.176;2023-06-05T11:35:11;101218.31;;;26.49;33.76
33153;BME280;19509;43.862;26.176;2023-06-05T11:37:37;101209.69;;;26.83;28.52
33153;BME280;19509;43.862;26.176;2023-06-05T11:40:04;101214.38;;;26.36;34.75
33153;BME280;19509;43.862;26.176;2023-06-05T11:42:34;101201.97;;;26.52;32.79
33153;BME280;19509;43.862;26.176;2023-06-05T11:45:00;101202.13;;;26.42;31.06
33153;BME280;19509;43.862;26.176;2023-06-05T11:47:27;101215.44;;;26.21;30.24
33153;BME280;19509;43.862;26.176;2023-06-05T11:50:11;101215.19;;;26.36;32.19
33153;BME280;19509;43.862;26.176;2023-06-05T11:52:37;101216.28;;;26.03;32.42
33153;BME280;19509;43.862;26.176;2023-06-05T11:55:17;101206.47;;;26.48;32.28
33153;BME280;19509;43.862;26.176;2023-06-05T11:57:48;101206.13;;;26.82;30.77
33153;BME280;19509;43.862;26.176;2023-06-05T12:00:15;101210.31;;;26.80;29.24
33153;BME280;19509;43.862;26.176;2023-06-05T12:02:44;101204.69;;;26.85;32.30
33153;BME280;19509;43.862;26.176;2023-06-05T12:05:10;101194.41;;;27.04;29.06
33153;BME280;19509;43.862;26.176;2023-06-05T12:07:36;101197.44;;;26.89;31.43
33153;BME280;19509;43.862;26.176;2023-06-05T12:10:06;101186.91;;;26.77;29.26
33153;BME280;19509;43.862;26.176;2023-06-05T12:12:49;101192.38;;;26.50;31.18
33153;BME280;19509;43.862;26.176;2023-06-05T12:15:18;101198.13;;;26.34;32.91
33153;BME280;19509;43.862;26.176;2023-06-05T12:17:52;101201.53;;;26.78;31.97
33153;BME280;19509;43.862;26.176;2023-06-05T12:20:18;101191.25;;;26.32;32.69
33153;BME280;19509;43.862;26.176;2023-06-05T12:22:45;101189.91;;;26.48;31.63
33153;BME280;19509;43.862;26.176;2023-06-05T12:25:20;101198.63;;;26.69;30.56
33153;BME280;19509;43.862;26.176;2023-06-05T12:27:47;101193.78;;;26.47;31.43
33153;BME280;19509;43.862;26.176;2023-06-05T12:30:13;101184.22;;;26.72;33.51
33153;BME280;19509;43.862;26.176;2023-06-05T12:32:39;101178.72;;;27.00;33.81
33153;BME280;19509;43.862;26.176;2023-06-05T12:35:05;101182.94;;;26.97;30.82
33153;BME280;19509;43.862;26.176;2023-06-05T12:37:42;101182.09;;;26.83;30.54
33153;BME280;19509;43.862;26.176;2023-06-05T12:40:11;101181.91;;;27.21;31.94
33153;BME280;19509;43.862;26.176;2023-06-05T12:42:39;101173.09;;;26.45;34.23
33153;BME280;19509;43.862;26.176;2023-06-05T12:45:06;101183.00;;;26.46;34.65
33153;BME280;19509;43.862;26.176;2023-06-05T12:47:37;101163.25;;;26.57;35.37
33153;BME280;19509;43.862;26.176;2023-06-05T12:50:03;101173.41;;;26.89;32.81
33153;BME280;19509;43.862;26.176;2023-06-05T12:52:33;101162.91;;;27.19;33.63
33153;BME280;19509;43.862;26.176;2023-06-05T12:54:59;101168.91;;;27.49;33.41
33153;BME280;19509;43.862;26.176;2023-06-05T12:57:25;101148.59;;;27.53;31.10
33153;BME280;19509;43.862;26.176;2023-06-05T12:59:53;101152.56;;;27.61;31.98
33153;BME280;19509;43.862;26.176;2023-06-05T13:02:19;101158.47;;;27.04;33.99
33153;BME280;19509;43.862;26.176;2023-06-05T13:04:44;101156.72;;;26.53;33.80
33153;BME280;19509;43.862;26.176;2023-06-05T13:07:11;101146.28;;;26.64;32.30
33153;BME280;19509;43.862;26.176;2023-06-05T13:09:36;101158.38;;;27.09;32.13
33153;BME280;19509;43.862;26.176;2023-06-05T13:12:03;101152.56;;;27.11;32.17